createdAt,value
2023-05-17T00:00:20.089Z,86.30
2023-05-17T00:02:46.987Z,87.50
2023-05-17T00:05:13.854Z,86.80
2023-05-17T00:07:40.776Z,86.80
2023-05-17T00:10:08.088Z,86.70
2023-05-17T00:12:35.013Z,86.90
2023-05-17T00:15:01.884Z,87.20
2023-05-17T00:17:28.860Z,87.30
2023-05-17T00:19:55.973Z,87.50
2023-05-17T00:22:22.831Z,87.70
2023-05-17T00:24:49.916Z,87.70
2023-05-17T00:27:16.694Z,87.70
2023-05-17T00:29:43.542Z,88.60
2023-05-17T00:32:10.506Z,87.80
2023-05-17T00:34:37.426Z,87.80
2023-05-17T00:37:04.635Z,87.90
2023-05-17T00:39:31.461Z,88.10
2023-05-17T00:41:58.301Z,88.40
2023-05-17T00:44:25.225Z,88.20
2023-05-17T00:46:52.061Z,88.20
2023-05-17T00:49:19.469Z,88.10
2023-05-17T00:51:46.466Z,87.90
2023-05-17T00:54:14.283Z,87.90
2023-05-17T00:56:41.307Z,87.70
2023-05-17T00:59:08.824Z,88.00
2023-05-17T01:01:36.984Z,87.70
2023-05-17T01:04:04.325Z,87.70
2023-05-17T01:06:31.406Z,87.70
2023-05-17T01:08:58.279Z,87.50
2023-05-17T01:11:56.233Z,87.70
2023-05-17T01:14:31.736Z,87.30
2023-05-17T01:17:06.227Z,87.00
2023-05-17T01:19:54.002Z,87.10
2023-05-17T01:22:48.552Z,86.80
2023-05-17T01:25:42.357Z,87.10
2023-05-17T01:28:12.361Z,87.20
2023-05-17T01:30:40.480Z,87.50
2023-05-17T01:33:09.016Z,87.50
2023-05-17T01:35:35.922Z,87.40
2023-05-17T01:38:02.734Z,87.30
2023-05-17T01:40:34.016Z,86.80
2023-05-17T01:43:23.525Z,86.50
2023-05-17T01:46:18.953Z,86.40
2023-05-17T01:48:56.901Z,86.10
2023-05-17T01:51:26.817Z,86.30
2023-05-17T01:54:01.763Z,86.30
2023-05-17T01:56:34.753Z,86.20
2023-05-17T01:59:04.859Z,86.40
2023-05-17T02:01:32.844Z,86.60
2023-05-17T02:03:59.724Z,86.60
2023-05-17T02:06:26.634Z,86.70
2023-05-17T02:08:53.713Z,86.80
2023-05-17T02:11:20.596Z,86.90
2023-05-17T02:13:47.382Z,87.00
2023-05-17T02:16:14.202Z,87.10
2023-05-17T02:18:41.403Z,87.60
2023-05-17T02:21:09.119Z,87.80
2023-05-17T02:23:35.999Z,88.40
2023-05-17T02:26:02.852Z,88.20
2023-05-17T02:28:29.746Z,88.60
2023-05-17T02:30:56.689Z,88.50
2023-05-17T02:33:23.739Z,88.50
2023-05-17T02:35:50.671Z,88.70
2023-05-17T02:38:17.553Z,88.60
2023-05-17T02:40:44.412Z,88.70
2023-05-17T02:43:11.256Z,88.90
2023-05-17T02:45:38.076Z,89.30
2023-05-17T02:48:05.022Z,90.00
2023-05-17T02:50:32.046Z,90.00
2023-05-17T02:52:58.952Z,90.00
2023-05-17T02:55:25.928Z,90.00
2023-05-17T02:57:52.872Z,90.20
2023-05-17T03:00:19.888Z,90.40
2023-05-17T03:02:46.883Z,90.80
2023-05-17T03:05:13.701Z,91.20
2023-05-17T03:07:40.564Z,91.40
2023-05-17T03:10:08.149Z,92.10
2023-05-17T03:12:34.956Z,92.40
2023-05-17T03:15:01.857Z,92.30
2023-05-17T03:17:28.769Z,92.10
2023-05-17T03:19:55.866Z,92.10
2023-05-17T03:22:22.653Z,92.10
2023-05-17T03:24:49.497Z,92.00
2023-05-17T03:27:16.927Z,91.90
2023-05-17T03:29:43.857Z,92.10
2023-05-17T03:32:10.748Z,91.90
2023-05-17T03:34:37.576Z,91.70
2023-05-17T03:37:04.569Z,91.70
2023-05-17T03:39:31.389Z,91.60
2023-05-17T03:41:58.280Z,91.70
2023-05-17T03:44:25.172Z,91.60
2023-05-17T03:46:52.056Z,91.50
2023-05-17T03:49:18.986Z,92.00
2023-05-17T03:51:45.823Z,92.40
2023-05-17T03:54:12.621Z,92.70
2023-05-17T03:56:39.441Z,92.80
2023-05-17T03:59:06.587Z,93.00
2023-05-17T04:01:34.057Z,93.10
2023-05-17T04:04:04.030Z,93.20
2023-05-17T04:06:30.901Z,93.30
2023-05-17T04:08:59.574Z,93.70
2023-05-17T04:11:27.527Z,92.90
2023-05-17T04:13:55.199Z,92.90
2023-05-17T04:16:22.205Z,92.70
2023-05-17T04:18:52.852Z,92.80
2023-05-17T04:21:20.149Z,92.80
2023-05-17T04:23:46.984Z,92.70
2023-05-17T04:26:15.009Z,92.90
2023-05-17T04:28:41.865Z,93.10
2023-05-17T04:31:08.927Z,93.30
2023-05-17T04:33:36.785Z,93.30
2023-05-17T04:36:04.138Z,92.90
2023-05-17T04:38:31.266Z,92.90
2023-05-17T04:41:05.474Z,92.60
2023-05-17T04:43:33.076Z,92.20
2023-05-17T04:46:00.683Z,91.90
2023-05-17T04:48:31.496Z,91.80
2023-05-17T04:51:02.494Z,91.60
2023-05-17T04:53:29.416Z,91.60
2023-05-17T04:55:56.734Z,91.50
2023-05-17T04:58:24.357Z,91.50
2023-05-17T05:00:52.181Z,91.80
2023-05-17T05:03:19.463Z,91.40
2023-05-17T05:05:46.404Z,91.60
2023-05-17T05:08:13.321Z,91.50
2023-05-17T05:10:40.225Z,91.50
2023-05-17T05:13:07.174Z,91.50
2023-05-17T05:15:34.008Z,91.30
2023-05-17T05:18:01.046Z,91.00
2023-05-17T05:20:28.339Z,91.10
2023-05-17T05:22:55.386Z,91.00
2023-05-17T05:25:22.214Z,91.00
2023-05-17T05:27:49.097Z,90.80
2023-05-17T05:30:22.316Z,90.90
2023-05-17T05:32:50.458Z,90.80
2023-05-17T05:35:18.085Z,90.90
2023-05-17T05:37:45.650Z,90.90
2023-05-17T05:40:13.106Z,90.60
2023-05-17T05:42:39.946Z,90.40
2023-05-17T05:45:08.342Z,90.30
2023-05-17T05:47:35.605Z,90.00
2023-05-17T05:50:02.641Z,89.90
2023-05-17T05:52:29.466Z,89.90
2023-05-17T05:54:56.325Z,89.50
2023-05-17T05:57:23.265Z,89.50
2023-05-17T05:59:50.208Z,89.30
2023-05-17T06:02:17.448Z,88.80
2023-05-17T06:04:45.843Z,88.00
2023-05-17T06:07:14.075Z,87.60
2023-05-17T06:09:41.445Z,86.80
2023-05-17T06:12:08.672Z,86.10
2023-05-17T06:14:37.745Z,85.80
2023-05-17T06:17:04.909Z,85.60
2023-05-17T06:19:31.943Z,85.20
2023-05-17T06:21:59.058Z,84.70
2023-05-17T06:24:25.991Z,84.50
2023-05-17T06:26:52.871Z,83.30
2023-05-17T06:29:19.726Z,82.40
2023-05-17T06:31:46.520Z,82.60
2023-05-17T06:34:13.428Z,82.30
2023-05-17T06:36:40.951Z,82.60
2023-05-17T06:39:07.895Z,82.20
2023-05-17T06:41:35.046Z,81.60
2023-05-17T06:44:01.949Z,81.60
2023-05-17T06:46:28.803Z,80.50
2023-05-17T06:48:56.380Z,80.30
2023-05-17T06:51:23.487Z,79.60
2023-05-17T06:53:50.432Z,78.60
2023-05-17T06:56:17.373Z,78.20
2023-05-17T06:58:44.274Z,78.40
2023-05-17T07:01:11.306Z,78.40
2023-05-17T07:03:38.221Z,78.00
2023-05-17T07:06:05.410Z,77.60
2023-05-17T07:08:32.260Z,77.10
2023-05-17T07:10:59.102Z,76.90
2023-05-17T07:13:26.002Z,76.20
2023-05-17T07:15:52.917Z,76.10
2023-05-17T07:18:31.796Z,75.90
2023-05-17T07:21:01.546Z,74.70
2023-05-17T07:23:33.976Z,75.40
2023-05-17T07:26:00.869Z,75.30
2023-05-17T07:28:30.580Z,75.00
2023-05-17T07:31:03.433Z,74.80
2023-05-17T07:33:36.112Z,75.30
2023-05-17T07:36:21.087Z,75.50
2023-05-17T07:38:53.628Z,75.40
2023-05-17T07:41:23.494Z,76.20
2023-05-17T07:43:55.485Z,76.10
2023-05-17T07:46:27.452Z,75.30
2023-05-17T07:49:03.183Z,75.20
2023-05-17T07:51:32.914Z,75.40
2023-05-17T07:53:59.825Z,75.10
2023-05-17T07:56:26.618Z,73.40
2023-05-17T07:58:53.467Z,73.60
2023-05-17T08:01:29.677Z,72.50
2023-05-17T08:03:59.303Z,72.00
2023-05-17T08:06:32.264Z,71.80
2023-05-17T08:08:59.124Z,72.30
2023-05-17T08:11:26.035Z,72.10
2023-05-17T08:13:56.258Z,70.90
2023-05-17T08:16:23.136Z,72.10
2023-05-17T08:18:50.129Z,72.60
2023-05-17T08:21:17.103Z,72.70
2023-05-17T08:23:49.355Z,72.50
2023-05-17T08:26:22.190Z,72.50
2023-05-17T08:29:22.774Z,72.60
2023-05-17T08:31:58.296Z,72.30
2023-05-17T08:34:28.103Z,72.50
2023-05-17T08:36:55.222Z,72.50
2023-05-17T08:39:22.204Z,72.40
2023-05-17T08:41:49.274Z,72.70
2023-05-17T08:44:17.216Z,73.10
2023-05-17T08:46:47.597Z,72.50
2023-05-17T08:49:37.492Z,71.80
2023-05-17T08:52:10.056Z,71.60
2023-05-17T08:54:37.685Z,71.70
2023-05-17T08:57:06.769Z,71.30
2023-05-17T08:59:35.239Z,71.80
2023-05-17T09:02:02.623Z,71.90
2023-05-17T09:04:31.388Z,71.60
2023-05-17T09:06:58.923Z,70.90
2023-05-17T09:09:26.695Z,70.90
2023-05-17T09:11:53.545Z,71.00
2023-05-17T09:14:20.733Z,69.40
2023-05-17T09:16:47.666Z,69.00
2023-05-17T09:19:17.609Z,69.30
2023-05-17T09:21:47.908Z,68.60
2023-05-17T09:24:14.812Z,68.20
2023-05-17T09:26:46.136Z,68.10
2023-05-17T09:29:15.550Z,68.00
2023-05-17T09:31:43.559Z,67.90
2023-05-17T09:34:11.063Z,66.60
2023-05-17T09:36:42.184Z,65.80
2023-05-17T09:39:12.337Z,66.00
2023-05-17T09:41:42.123Z,66.20
2023-05-17T09:44:10.492Z,66.10
2023-05-17T09:46:41.425Z,65.40
2023-05-17T09:49:09.381Z,64.10
2023-05-17T09:51:39.823Z,64.10
2023-05-17T09:54:07.378Z,63.70
2023-05-17T09:56:35.333Z,63.40
2023-05-17T09:59:03.328Z,62.80
2023-05-17T10:01:31.727Z,62.60
2023-05-17T10:04:04.920Z,62.80
2023-05-17T10:06:45.994Z,62.80
2023-05-17T10:09:17.032Z,62.80
2023-05-17T10:11:46.953Z,63.00
2023-05-17T10:14:19.127Z,62.40
2023-05-17T10:16:46.444Z,62.80
2023-05-17T10:19:14.273Z,63.20
2023-05-17T10:21:42.856Z,62.90
2023-05-17T10:24:11.405Z,63.00
2023-05-17T10:26:38.772Z,62.70
2023-05-17T10:29:06.164Z,62.10
2023-05-17T10:31:34.335Z,62.40
2023-05-17T10:34:02.369Z,62.00
2023-05-17T10:36:30.149Z,62.80
2023-05-17T10:38:58.535Z,62.70
2023-05-17T10:41:30.705Z,62.30
2023-05-17T10:43:59.030Z,62.00
2023-05-17T10:46:25.941Z,62.20
2023-05-17T10:48:54.245Z,60.70
2023-05-17T10:51:32.514Z,59.00
2023-05-17T10:54:08.204Z,58.90
2023-05-17T10:56:38.813Z,59.10
2023-05-17T10:59:23.746Z,59.00
2023-05-17T11:01:58.262Z,58.10
2023-05-17T11:04:33.806Z,57.50
2023-05-17T11:07:20.302Z,57.30
2023-05-17T11:09:50.446Z,57.10
2023-05-17T11:12:27.594Z,57.00
2023-05-17T11:14:55.689Z,56.90
2023-05-17T11:17:28.077Z,56.70
2023-05-17T11:19:55.117Z,57.00
2023-05-17T11:22:26.806Z,57.20
2023-05-17T11:24:57.283Z,57.00
2023-05-17T11:27:28.012Z,57.00
2023-05-17T11:29:55.652Z,56.70
2023-05-17T11:32:32.918Z,56.40
2023-05-17T11:35:01.170Z,56.70
2023-05-17T11:37:30.026Z,56.40
2023-05-17T11:40:08.382Z,56.20
2023-05-17T11:42:37.355Z,55.90
2023-05-17T11:45:05.189Z,56.00
2023-05-17T11:47:32.877Z,55.10
2023-05-17T11:50:04.148Z,54.90
2023-05-17T11:52:31.842Z,54.50
2023-05-17T11:55:00.697Z,54.80
2023-05-17T11:57:31.702Z,55.10
2023-05-17T12:00:05.050Z,53.80
2023-05-17T12:02:33.242Z,53.80
2023-05-17T12:05:00.427Z,53.40
2023-05-17T12:07:28.304Z,53.30
2023-05-17T12:09:55.190Z,53.40
2023-05-17T12:12:22.579Z,52.60
2023-05-17T12:14:50.716Z,52.80
2023-05-17T12:17:31.271Z,52.50
2023-05-17T12:20:09.687Z,52.70
2023-05-17T12:22:54.967Z,57.50
2023-05-17T12:25:25.617Z,59.70
2023-05-17T12:27:52.775Z,60.40
2023-05-17T12:30:19.999Z,61.10
2023-05-17T12:32:47.810Z,61.50
2023-05-17T12:35:14.964Z,62.30
2023-05-17T12:37:41.931Z,62.30
2023-05-17T12:40:09.356Z,62.70
2023-05-17T12:42:36.250Z,63.20
2023-05-17T12:45:03.300Z,63.30
2023-05-17T12:47:33.128Z,63.70
2023-05-17T12:50:03.366Z,62.80
2023-05-17T12:52:36.912Z,62.50
2023-05-17T12:55:04.798Z,62.30
2023-05-17T12:57:32.061Z,62.00
2023-05-17T12:59:59.077Z,61.90
2023-05-17T13:02:26.036Z,61.40
2023-05-17T13:04:53.123Z,61.60
2023-05-17T13:07:24.214Z,60.90
2023-05-17T13:09:51.732Z,60.30
2023-05-17T13:12:22.224Z,60.50
2023-05-17T13:15:00.707Z,60.60
2023-05-17T13:17:35.860Z,60.80
2023-05-17T13:20:04.818Z,60.40
2023-05-17T13:22:32.802Z,59.50
2023-05-17T13:24:59.665Z,59.70
2023-05-17T13:27:26.514Z,60.20
2023-05-17T13:29:53.395Z,60.40
2023-05-17T13:32:21.560Z,60.30
2023-05-17T13:34:48.388Z,60.60
2023-05-17T13:37:15.355Z,60.40
2023-05-17T13:39:42.299Z,60.20
2023-05-17T13:42:10.579Z,59.30
2023-05-17T13:44:38.428Z,59.20
2023-05-17T13:47:05.828Z,58.30
2023-05-17T13:49:32.752Z,58.60
2023-05-17T13:52:00.776Z,57.80
2023-05-17T13:54:27.767Z,57.10
2023-05-17T13:56:55.536Z,57.10
2023-05-17T13:59:22.542Z,56.30
2023-05-17T14:01:49.590Z,55.90
2023-05-17T14:04:21.280Z,55.50
2023-05-17T14:06:49.234Z,55.40
2023-05-17T14:09:16.833Z,54.70
2023-05-17T14:11:44.087Z,54.00
2023-05-17T14:14:10.920Z,53.90
2023-05-17T14:16:37.881Z,53.80
2023-05-17T14:19:05.157Z,53.90
2023-05-17T14:21:32.594Z,54.20
2023-05-17T14:23:59.440Z,54.70
2023-05-17T14:26:26.699Z,54.90
2023-05-17T14:28:53.673Z,55.20
2023-05-17T14:31:20.581Z,55.40
2023-05-17T14:33:47.593Z,55.40
2023-05-17T14:36:14.514Z,55.80
2023-05-17T14:38:41.471Z,55.70
2023-05-17T14:41:08.361Z,55.40
2023-05-17T14:43:35.200Z,57.40
2023-05-17T14:46:02.094Z,58.30
2023-05-17T14:48:29.096Z,58.90
2023-05-17T14:50:56.077Z,59.20
2023-05-17T14:53:23.507Z,59.50
2023-05-17T14:55:50.423Z,59.70
2023-05-17T14:58:17.223Z,60.00
2023-05-17T15:00:48.572Z,59.40
2023-05-17T15:03:21.764Z,60.10
2023-05-17T15:05:57.056Z,60.10
2023-05-17T15:08:23.969Z,60.10
2023-05-17T15:10:51.659Z,60.10
2023-05-17T15:13:18.622Z,60.40
2023-05-17T15:15:46.707Z,61.70
2023-05-17T15:18:16.227Z,61.80
2023-05-17T15:20:43.284Z,62.10
2023-05-17T15:23:10.143Z,62.40
2023-05-17T15:25:37.038Z,62.60
2023-05-17T15:28:04.012Z,62.90
2023-05-17T15:30:30.885Z,61.60
2023-05-17T15:32:59.227Z,61.10
2023-05-17T15:35:27.396Z,60.90
2023-05-17T15:37:54.551Z,60.50
2023-05-17T15:40:22.251Z,60.40
2023-05-17T15:42:51.378Z,60.60
2023-05-17T15:45:21.297Z,60.20
2023-05-17T15:47:49.402Z,60.30
2023-05-17T15:50:16.775Z,58.90
2023-05-17T15:52:43.818Z,57.70
2023-05-17T15:55:11.006Z,57.00
2023-05-17T15:57:37.878Z,54.80
2023-05-17T16:00:05.411Z,55.00
2023-05-17T16:02:32.405Z,54.20
2023-05-17T16:05:01.814Z,52.60
2023-05-17T16:07:30.336Z,52.50
2023-05-17T16:09:57.164Z,52.60
2023-05-17T16:12:24.008Z,52.90
2023-05-17T16:14:50.905Z,52.90
2023-05-17T16:17:17.695Z,53.40
2023-05-17T16:19:44.555Z,54.10
2023-05-17T16:22:11.490Z,54.50
2023-05-17T16:24:38.361Z,54.70
2023-05-17T16:27:07.309Z,54.50
2023-05-17T16:29:39.824Z,54.70
2023-05-17T16:32:07.912Z,55.60
2023-05-17T16:34:34.783Z,56.00
2023-05-17T16:37:01.677Z,56.10
2023-05-17T16:39:28.779Z,56.40
2023-05-17T16:41:56.040Z,56.50
2023-05-17T16:44:22.955Z,56.60
2023-05-17T16:46:50.316Z,56.80
2023-05-17T16:49:17.297Z,57.00
2023-05-17T16:51:45.426Z,57.20
2023-05-17T16:54:12.326Z,57.40
2023-05-17T16:56:39.516Z,57.60
2023-05-17T16:59:06.334Z,57.90
2023-05-17T17:01:33.352Z,57.90
2023-05-17T17:04:00.645Z,57.90
2023-05-17T17:06:27.623Z,57.90
2023-05-17T17:08:54.579Z,57.90
2023-05-17T17:11:24.311Z,57.80
2023-05-17T17:13:51.232Z,58.10
2023-05-17T17:16:18.303Z,57.90
2023-05-17T17:18:47.073Z,57.20
2023-05-17T17:21:14.665Z,56.50
2023-05-17T17:23:41.813Z,56.90
2023-05-17T17:26:08.924Z,56.70
2023-05-17T17:28:35.772Z,56.70
2023-05-17T17:31:02.642Z,56.90
2023-05-17T17:33:29.510Z,57.10
2023-05-17T17:35:56.460Z,57.00
2023-05-17T17:38:23.444Z,56.30
2023-05-17T17:40:50.492Z,56.60
2023-05-17T17:43:17.366Z,56.20
2023-05-17T17:45:46.993Z,56.50
2023-05-17T17:48:13.897Z,56.20
2023-05-17T17:50:40.846Z,56.30
2023-05-17T17:53:07.722Z,56.30
2023-05-17T17:55:34.647Z,56.60
2023-05-17T17:58:01.455Z,56.70
2023-05-17T18:00:28.550Z,56.80
2023-05-17T18:02:56.321Z,56.90
2023-05-17T18:05:23.190Z,57.00
2023-05-17T18:07:49.993Z,57.10
2023-05-17T18:10:16.826Z,57.20
2023-05-17T18:12:43.799Z,57.30
2023-05-17T18:15:11.633Z,57.50
2023-05-17T18:17:39.393Z,61.00
2023-05-17T18:20:07.019Z,62.30
2023-05-17T18:22:34.328Z,62.80
2023-05-17T18:25:01.162Z,64.20
2023-05-17T18:27:27.958Z,63.90
2023-05-17T18:29:54.873Z,64.10
2023-05-17T18:32:21.774Z,64.90
2023-05-17T18:34:48.867Z,65.20
2023-05-17T18:37:16.316Z,65.90
2023-05-17T18:39:43.156Z,66.80
2023-05-17T18:42:10.022Z,67.40
2023-05-17T18:44:37.073Z,67.50
2023-05-17T18:47:04.158Z,68.10
2023-05-17T18:49:31.363Z,68.50
2023-05-17T18:51:58.180Z,68.30
2023-05-17T18:54:25.095Z,68.50
2023-05-17T18:56:51.933Z,68.80
2023-05-17T18:59:19.259Z,69.10
2023-05-17T19:01:46.296Z,69.50
2023-05-17T19:04:14.506Z,69.40
2023-05-17T19:06:42.286Z,69.10
2023-05-17T19:09:09.300Z,68.30
2023-05-17T19:11:36.283Z,68.20
2023-05-17T19:14:03.346Z,68.30
2023-05-17T19:16:30.335Z,67.80
2023-05-17T19:18:57.239Z,67.90
2023-05-17T19:21:24.183Z,67.60
2023-05-17T19:23:51.119Z,67.70
2023-05-17T19:26:18.290Z,67.70
2023-05-17T19:28:45.162Z,67.60
2023-05-17T19:31:12.195Z,67.30
2023-05-17T19:33:39.119Z,67.50
2023-05-17T19:36:06.026Z,67.30
2023-05-17T19:38:33.361Z,67.20
2023-05-17T19:41:01.551Z,67.30
2023-05-17T19:43:28.655Z,67.30
2023-05-17T19:45:55.880Z,67.20
2023-05-17T19:48:24.257Z,67.80
2023-05-17T19:50:51.630Z,67.90
2023-05-17T19:53:18.603Z,67.40
2023-05-17T19:55:45.556Z,67.60
2023-05-17T19:58:12.382Z,67.60
2023-05-17T20:00:39.279Z,67.40
2023-05-17T20:03:06.338Z,67.00
2023-05-17T20:05:33.217Z,66.90
2023-05-17T20:08:02.586Z,67.50
2023-05-17T20:10:32.650Z,67.20
2023-05-17T20:12:59.697Z,67.00
2023-05-17T20:15:26.567Z,67.10
2023-05-17T20:17:53.493Z,67.30
2023-05-17T20:20:20.616Z,67.40
2023-05-17T20:22:47.882Z,67.30
2023-05-17T20:25:14.753Z,67.40
2023-05-17T20:27:41.592Z,67.40
2023-05-17T20:30:09.159Z,67.50
2023-05-17T20:32:36.084Z,67.30
2023-05-17T20:35:02.960Z,67.40
2023-05-17T20:37:29.819Z,67.30
2023-05-17T20:40:00.112Z,67.50
2023-05-17T20:42:28.241Z,67.60
2023-05-17T20:44:55.533Z,67.60
2023-05-17T20:47:22.532Z,67.60
2023-05-17T20:49:50.336Z,67.70
2023-05-17T20:52:31.270Z,67.70
2023-05-17T20:55:05.370Z,67.70
2023-05-17T20:57:32.264Z,67.70
2023-05-17T20:59:59.107Z,67.70
2023-05-17T21:02:26.449Z,67.80
2023-05-17T21:04:54.561Z,67.70
2023-05-17T21:07:22.456Z,67.80
2023-05-17T21:09:49.424Z,67.90
2023-05-17T21:12:16.298Z,68.20
2023-05-17T21:14:43.247Z,68.30
2023-05-17T21:17:10.479Z,68.70
2023-05-17T21:19:37.428Z,68.70
2023-05-17T21:22:04.551Z,68.80
2023-05-17T21:24:31.359Z,69.10
2023-05-17T21:26:58.493Z,69.20
2023-05-17T21:29:25.526Z,69.50
2023-05-17T21:31:52.441Z,69.80
2023-05-17T21:34:19.348Z,70.00
2023-05-17T21:36:46.377Z,70.20
2023-05-17T21:39:13.391Z,70.40
2023-05-17T21:41:40.165Z,70.60
2023-05-17T21:44:07.012Z,70.70
2023-05-17T21:46:33.831Z,70.80
2023-05-17T21:49:00.889Z,71.00
2023-05-17T21:51:27.697Z,71.20
2023-05-17T21:53:54.873Z,71.40
2023-05-17T21:56:21.826Z,71.10
2023-05-17T21:58:48.696Z,71.60
2023-05-17T22:01:17.363Z,71.60
2023-05-17T22:03:44.287Z,71.90
2023-05-17T22:06:11.237Z,72.00
2023-05-17T22:08:38.054Z,71.90
2023-05-17T22:11:05.672Z,71.90
2023-05-17T22:13:32.601Z,72.00
2023-05-17T22:15:59.548Z,72.00
2023-05-17T22:18:27.129Z,72.10
2023-05-17T22:20:55.090Z,72.20
2023-05-17T22:23:22.004Z,72.30
2023-05-17T22:25:48.838Z,72.30
2023-05-17T22:28:15.807Z,72.50
2023-05-17T22:30:44.904Z,72.60
2023-05-17T22:33:12.898Z,72.60
2023-05-17T22:35:41.168Z,72.80
2023-05-17T22:38:08.092Z,73.20
2023-05-17T22:40:34.975Z,73.50
2023-05-17T22:43:01.871Z,73.40
2023-05-17T22:45:33.406Z,73.40
2023-05-17T22:48:03.045Z,73.60
2023-05-17T22:50:33.038Z,73.70
2023-05-17T22:53:01.116Z,74.00
2023-05-17T22:55:28.411Z,74.00
2023-05-17T22:57:56.857Z,74.10
2023-05-17T23:00:25.362Z,74.40
2023-05-17T23:02:52.351Z,74.50
2023-05-17T23:05:19.210Z,74.50
2023-05-17T23:07:47.346Z,74.60
2023-05-17T23:10:15.390Z,74.80
2023-05-17T23:12:42.174Z,74.70
2023-05-17T23:15:09.520Z,74.90
2023-05-17T23:17:36.482Z,75.00
2023-05-17T23:20:09.947Z,75.00
2023-05-17T23:22:37.294Z,75.10
2023-05-17T23:25:06.034Z,75.30
2023-05-17T23:27:33.754Z,75.30
2023-05-17T23:30:01.145Z,75.30
2023-05-17T23:32:28.735Z,75.50
2023-05-17T23:35:03.274Z,75.50
2023-05-17T23:37:33.805Z,75.70
2023-05-17T23:40:00.746Z,75.60
2023-05-17T23:42:29.408Z,75.50
2023-05-17T23:44:56.327Z,75.60
2023-05-17T23:47:23.347Z,75.90
2023-05-17T23:49:50.189Z,76.10
2023-05-17T23:52:18.909Z,75.80
2023-05-17T23:54:47.277Z,76.00
2023-05-17T23:57:14.128Z,76.50
2023-05-17T23:59:41.347Z,76.70
